Latest Weather Observations for Hamilton

IDV60801

Issued at 8:02 am EST Saturday 28 May 2016 (issued every 30 minutes, with the page automatically refreshed every 10 minutes)

About weather observations | Map of weather stations | Latest weather observations for VIC | Other Formats
Station Details ID: 090173 Name: HAMILTON AIRPORT Lat: -37.65 Lon: 142.06 Height: 241.1 m
Data from the previous 72 hours. | See also: Recent months at Hamilton
Date/Time
EST
Temp
°C
App
Temp
°C
Dew
Point
Rel
Hum
%
Delta-T
°C
Wind Press
QNH
hPa
Press
MSL
hPa
Rain
since 9 am
mm
Dir
 
Spd
km/h
Gust
km/h
Spd
kts
Gust
kts
28/08:00am 4.9 1.5 4.2 95 0.3 SW 11 11 6 6 1012.8 1012.9 3.6
28/07:49am 5.1 2.1 4.2 94 0.4 SSW 9 11 5 6 1012.7 1012.8 3.6
28/07:30am 5.9 3.1 5.0 94 0.4 S 9 13 5 7 1012.4 1012.5 3.6
28/07:00am 7.1 3.8 6.2 94 0.4 SSE 13 17 7 9 1012.0 1012.1 3.6
28/06:38am 7.2 3.5 6.3 94 0.4 S 15 17 8 9 1011.7 1011.7 3.6
28/06:30am 7.1 3.4 6.2 94 0.4 S 15 19 8 10 1011.6 1011.6 3.4
28/06:21am 7.0 3.2 5.9 93 0.5 S 15 19 8 10 1011.6 1011.6 3.4
28/06:00am 6.8 3.3 5.4 91 0.6 SSW 13 17 7 9 1011.1 1011.1 3.2
28/05:30am 7.0 3.1 5.5 90 0.7 SSE 15 19 8 10 1010.6 1010.7 3.2
28/05:00am 7.3 3.5 5.6 89 0.8 SSE 15 20 8 11 1010.3 1010.4 3.2
28/04:30am 6.5 2.5 4.8 89 0.8 SSE 15 19 8 10 1010.0 1010.1 3.2
28/04:00am 6.8 2.4 5.0 88 0.8 SSE 17 24 9 13 1009.7 1009.8 3.2
28/03:30am 6.9 3.0 5.2 89 0.8 SE 15 20 8 11 1009.4 1009.5 3.2
28/03:00am 7.1 3.3 5.7 91 0.6 SSE 15 20 8 11 1009.4 1009.5 3.2
28/02:30am 7.5 3.4 6.3 92 0.6 SSE 17 20 9 11 1009.2 1009.3 3.2
28/02:00am 7.8 4.6 6.7 93 0.5 SSE 13 19 7 10 1008.9 1009.0 3.2
28/01:30am 8.0 4.4 6.9 93 0.5 SE 15 19 8 10 1008.6 1008.7 3.2
28/01:00am 8.1 4.2 7.0 93 0.5 SE 17 20 9 11 1008.3 1008.3 3.2
28/12:30am 8.2 3.9 7.1 93 0.5 SE 19 24 10 13 1008.1 1008.1 3.2
28/12:00am 8.2 3.3 7.1 93 0.5 ESE 22 26 12 14 1008.0 1008.0 3.2
 
Date/Time
EST
Temp
°C
App
Temp
°C
Dew
Point
Rel
Hum
%
Delta-T
°C
Wind Press
QNH
hPa
Press
MSL
hPa
Rain
since 9 am
mm
Dir
 
Spd
km/h
Gust
km/h
Spd
kts
Gust
kts
27/11:30pm 8.2 3.7 7.0 92 0.6 ESE 20 26 11 14 1007.8 1007.8 3.0
27/11:00pm 8.4 3.9 7.0 91 0.7 ESE 20 26 11 14 1007.5 1007.5 3.0
27/10:30pm 8.6 3.8 7.4 92 0.6 ESE 22 28 12 15 1007.4 1007.4 3.0
27/10:00pm 8.8 3.9 7.1 89 0.8 ESE 22 30 12 16 1007.2 1007.2 3.0
27/09:30pm 8.9 4.1 7.4 90 0.7 E 22 28 12 15 1007.0 1007.0 3.0
27/09:00pm 8.7 4.3 7.3 91 0.7 E 20 26 11 14 1006.7 1006.7 3.0
27/08:30pm 8.8 3.6 7.4 91 0.7 E 24 30 13 16 1006.3 1006.4 3.0
27/08:00pm 8.8 4.1 7.6 92 0.6 E 22 28 12 15 1006.1 1006.2 3.0
27/07:55pm 8.8 3.7 7.6 92 0.6 E 24 30 13 16 1006.0 1006.1 3.0
27/07:32pm 8.9 4.2 7.8 93 0.5 E 22 30 12 16 1005.9 1006.0 3.0
27/07:30pm 9.0 4.3 7.9 93 0.5 E 22 30 12 16 1005.9 1006.0 3.0
27/07:19pm 9.1 4.5 8.2 94 0.4 E 22 28 12 15 1005.9 1006.0 3.0
27/07:11pm 9.3 5.1 8.4 94 0.4 E 20 24 11 13 1005.8 1005.9 3.0
27/07:00pm 9.3 5.1 8.4 94 0.4 E 20 26 11 14 1005.7 1005.8 3.0
27/06:55pm 9.3 5.3 8.4 94 0.4 E 19 24 10 13 1005.7 1005.8 3.0
27/06:35pm 9.4 5.8 8.5 94 0.4 E 17 22 9 12 1005.5 1005.6 3.0
27/06:30pm 9.5 6.0 8.6 94 0.4 E 17 19 9 10 1005.4 1005.5 3.0
27/06:00pm 9.3 6.5 8.4 94 0.4 ESE 13 15 7 8 1005.2 1005.3 2.8
27/05:30pm 9.4 6.5 8.3 93 0.5 ESE 13 17 7 9 1005.1 1005.2 2.6
27/05:00pm 9.6 7.2 8.5 93 0.5 E 11 15 6 8 1004.8 1004.8 2.4
27/04:59pm 9.6 7.2 8.5 93 0.5 E 11 15 6 8 1004.8 1004.8 2.4
27/04:43pm 9.8 7.0 8.6 92 0.6 E 13 17 7 9 1004.8 1004.8 2.2
27/04:30pm 10.0 7.6 8.8 92 0.6 ENE 11 13 6 7 1004.8 1004.8 2.0
27/04:00pm 10.1 7.7 8.5 90 0.8 NE 11 13 6 7 1004.8 1004.8 1.0
27/03:30pm 10.5 7.6 8.1 85 1.2 NNE 13 19 7 10 1004.7 1004.7 0.0
27/03:00pm 11.1 8.2 8.0 81 1.5 NNE 13 20 7 11 1004.7 1004.7 0.0
27/02:30pm 11.1 7.7 7.8 80 1.6 NNE 15 20 8 11 1004.8 1004.8 0.0
27/02:00pm 11.6 8.2 7.5 76 2.0 NNE 15 19 8 10 1005.1 1005.2 0.0
27/01:30pm 11.5 7.2 7.2 75 2.1 NNE 19 26 10 14 1005.3 1005.4 0.0
27/01:00pm 11.6 7.3 7.7 77 1.9 NNE 20 26 11 14 1005.6 1005.7 0.0
27/12:30pm 11.1 6.7 7.4 78 1.8 N 20 26 11 14 1006.0 1006.1 0.0
27/12:00pm 10.4 6.2 7.5 82 1.4 NNE 19 24 10 13 1006.4 1006.5 0.0
27/11:30am 10.9 6.8 8.0 82 1.4 N 19 22 10 12 1007.2 1007.2 0.0
27/11:00am 10.2 6.8 9.3 94 0.5 N 17 20 9 11 1007.8 1007.8 0.0
27/10:30am 8.6 5.3 8.2 97 0.2 N 15 17 8 9 1008.3 1008.3 0.0
27/10:07am 7.7 4.6 7.3 97 0.2 N 13 15 7 8 1008.4 1008.5 0.0
27/10:00am 7.0 3.7 6.6 97 0.2 N 13 15 7 8 1008.4 1008.5 0.0
27/09:32am 5.8 1.9 5.4 97 0.2 N 15 17 8 9 1008.5 1008.6 0.0
27/09:30am 5.8 1.9 5.4 97 0.2 N 15 17 8 9 1008.5 1008.6 0.0
27/09:11am 5.3 1.7 4.9 97 0.2 N 13 17 7 9 1008.6 1008.7 0.0
27/09:00am 5.1 1.1 4.7 97 0.2 N 15 17 8 9 1008.4 1008.5 0.2
27/08:30am 4.4 0.2 4.0 97 0.2 N 15 19 8 10 1008.4 1008.5 0.2
27/08:00am 4.1 0.3 3.7 97 0.2 N 13 15 7 8 1008.5 1008.6 0.2
27/07:40am 3.8 -0.1 3.4 97 0.2 N 13 15 7 8 1008.4 1008.5 0.2
27/07:38am 3.7 -0.2 3.3 97 0.2 N 13 15 7 8 1008.3 1008.3 0.2
27/07:30am 3.4 -0.2 3.0 97 0.2 NNE 11 15 6 8 1008.3 1008.3 0.2
27/07:00am 3.2 -0.4 2.8 97 0.2 NNE 11 13 6 7 1008.3 1008.3 0.2
27/06:58am 3.0 -0.7 2.6 97 0.2 N 11 13 6 7 1008.3 1008.3 0.2
27/06:30am 2.5 -1.3 1.9 96 0.2 N 11 11 6 6 1008.1 1008.1 0.2
27/06:00am 2.5 -1.3 1.9 96 0.2 N 11 11 6 6 1008.0 1008.0 0.2
27/05:43am 2.9 -0.4 2.3 96 0.2 N 9 11 5 6 1008.1 1008.1 0.2
27/05:30am 2.9 0.1 2.3 96 0.2 NNE 6 7 3 4 1008.2 1008.2 0.2
27/05:00am 3.0 -1.1 2.4 96 0.2 N 13 13 7 7 1008.3 1008.3 0.2
27/04:30am 3.9 0.7 3.3 96 0.2 N 9 11 5 6 1008.2 1008.2 0.2
27/04:20am 3.9 0.7 3.3 96 0.2 N 9 11 5 6 1008.2 1008.2 0.2
27/04:00am 4.1 1.0 3.5 96 0.3 NNW 9 11 5 6 1008.2 1008.2 0.0
27/03:30am 5.4 2.5 4.8 96 0.3 NNW 9 11 5 6 1008.2 1008.2 0.0
27/03:00am 4.8 1.4 4.2 96 0.3 NNW 11 11 6 6 1008.5 1008.6 0.0
27/02:59am 4.7 1.3 4.1 96 0.3 NNW 11 11 6 6 1008.5 1008.6 0.0
27/02:30am 4.5 1.5 3.9 96 0.3 NNW 9 11 5 6 1008.6 1008.7 0.0
27/02:28am 4.6 1.6 4.0 96 0.3 NNW 9 11 5 6 1008.6 1008.7 0.0
27/02:00am 6.0 3.8 5.4 96 0.3 NW 6 7 3 4 1008.4 1008.5 0.0
27/01:30am 6.0 3.3 5.4 96 0.3 WNW 9 9 5 5 1008.5 1008.6 0.0
27/01:00am 5.7 3.5 5.1 96 0.3 NW 6 7 3 4 1008.7 1008.8 0.0
27/12:30am 6.0 3.6 5.3 95 0.3 NW 7 9 4 5 1008.9 1009.0 0.0
27/12:00am 6.2 3.5 5.5 95 0.3 NW 9 9 5 5 1009.1 1009.2 0.0
 
Date/Time
EST
Temp
°C
App
Temp
°C
Dew
Point
Rel
Hum
%
Delta-T
°C
Wind Press
QNH
hPa
Press
MSL
hPa
Rain
since 9 am
mm
Dir
 
Spd
km/h
Gust
km/h
Spd
kts
Gust
kts
26/11:30pm 6.4 3.7 5.5 94 0.4 NW 9 11 5 6 1008.9 1009.0 0.0
26/11:18pm 6.4 3.7 5.5 94 0.4 NW 9 11 5 6 1009.0 1009.1 0.0
26/11:00pm 6.5 3.4 5.5 93 0.5 NW 11 13 6 7 1008.9 1009.0 0.0
26/10:30pm 7.4 5.2 6.0 91 0.6 NW 7 9 4 5 1009.1 1009.2 0.0
26/10:00pm 8.3 5.9 7.1 92 0.6 W 9 11 5 6 1009.3 1009.4 0.0
26/09:30pm 8.0 6.1 6.6 91 0.7 WSW 6 7 3 4 1009.2 1009.3 0.0
26/09:00pm 8.7 6.3 7.2 90 0.7 W 9 13 5 7 1009.1 1009.2 0.0
26/08:30pm 8.7 6.3 7.2 90 0.7 W 9 11 5 6 1008.9 1009.0 0.0
26/08:00pm 8.5 6.1 6.8 89 0.8 W 9 13 5 7 1008.7 1008.8 0.0
26/07:30pm 9.1 6.7 7.1 87 1.0 W 9 11 5 6 1008.5 1008.6 0.0
26/07:00pm 9.2 6.7 6.6 84 1.2 W 9 13 5 7 1008.5 1008.6 0.0
26/06:30pm 8.4 6.2 6.0 85 1.1 W 7 9 4 5 1008.2 1008.2 0.0
26/06:00pm 8.8 5.9 6.3 84 1.2 WSW 11 15 6 8 1007.7 1007.7 0.0
26/05:30pm 10.0 7.2 7.1 82 1.4 WSW 11 13 6 7 1007.4 1007.4 0.0
26/05:00pm 10.6 6.6 6.6 76 1.9 WSW 17 26 9 14 1007.2 1007.2 0.0
26/04:30pm 11.1 6.5 5.8 70 2.5 SW 19 22 10 12 1006.9 1006.9 0.0
26/04:00pm 11.3 6.5 5.8 69 2.6 SW 20 28 11 15 1006.7 1006.7 0.0
26/03:30pm 11.1 6.5 5.8 70 2.5 SSW 19 24 10 13 1006.3 1006.4 0.0
26/03:00pm 13.2 7.9 6.8 65 3.1 SW 24 33 13 18 1006.0 1006.1 0.0
26/02:30pm 11.8 6.8 6.3 69 2.6 SSW 22 30 12 16 1006.0 1006.1 0.0
26/02:00pm 12.9 8.4 6.9 67 2.9 SW 20 24 11 13 1005.9 1006.0 0.0
26/01:30pm 11.1 5.5 5.4 68 2.7 SW 24 30 13 16 1005.9 1006.0 0.0
26/01:00pm 10.6 3.6 6.0 73 2.2 SSW 32 41 17 22 1006.1 1006.2 0.0
26/12:30pm 12.3 7.5 7.2 71 2.5 WSW 22 30 12 16 1006.0 1006.1 0.0
26/12:00pm 12.4 6.9 7.5 72 2.4 SW 26 35 14 19 1005.9 1006.0 0.0
26/11:30am 11.5 6.5 8.0 79 1.7 SW 24 32 13 17 1006.0 1006.1 0.0
26/11:00am 10.7 6.8 8.5 86 1.1 WSW 19 26 10 14 1006.2 1006.3 0.0
26/10:30am 10.0 6.8 8.6 91 0.7 W 15 19 8 10 1006.3 1006.4 0.0
26/10:00am 9.8 6.3 8.7 93 0.5 WNW 17 22 9 12 1006.1 1006.2 0.0
26/09:30am 9.1 6.2 8.2 94 0.4 WNW 13 17 7 9 1006.2 1006.3 0.0
26/09:00am 8.6 6.4 7.7 94 0.4 WNW 9 13 5 7 1005.9 1006.0 14.6
26/08:30am 8.4 5.4 7.5 94 0.4 SW 13 15 7 8 1005.6 1005.7 14.6
26/08:00am 8.5 5.1 7.6 94 0.4 S 15 20 8 11 1005.1 1005.2 14.6
26/07:30am 8.6 4.5 7.8 95 0.4 SW 19 24 10 13 1004.9 1005.0 14.4
26/07:27am 8.5 4.4 7.7 95 0.4 SW 19 24 10 13 1004.9 1005.0 14.4
26/07:00am 8.8 3.4 8.2 96 0.3 WSW 26 35 14 19 1005.0 1005.1 14.4
26/06:40am 9.1 3.8 8.5 96 0.3 WSW 26 35 14 19 1004.7 1004.7 14.4
26/06:30am 9.7 5.7 9.1 96 0.3 WSW 20 28 11 15 1004.6 1004.6 14.2
26/06:00am 9.8 6.4 9.2 96 0.3 WSW 17 22 9 12 1004.5 1004.5 13.4
26/05:30am 10.4 7.2 9.9 97 0.3 WSW 17 20 9 11 1004.4 1004.4 12.8
26/05:15am 10.4 7.6 9.9 97 0.3 W 15 20 8 11 1004.3 1004.3 12.8
26/05:00am 10.3 7.1 9.8 97 0.3 WSW 17 20 9 11 1004.2 1004.2 12.8
26/04:30am 10.2 7.7 9.6 96 0.3 W 13 17 7 9 1004.0 1004.0 12.8
26/04:00am 9.9 7.3 9.3 96 0.3 NW 13 15 7 8 1004.2 1004.2 12.8
26/03:30am 9.9 7.7 9.3 96 0.3 NW 11 15 6 8 1004.3 1004.3 12.6
26/03:00am 9.8 7.6 9.2 96 0.3 NNW 11 13 6 7 1004.1 1004.1 12.6
26/02:30am 9.8 7.2 9.2 96 0.3 NNW 13 19 7 10 1004.5 1004.5 12.4
26/02:00am 9.7 7.0 9.1 96 0.3 NNW 13 17 7 9 1004.4 1004.4 12.4
26/01:30am 9.7 7.0 9.1 96 0.3 NNW 13 17 7 9 1004.8 1004.8 12.4
26/01:11am 9.7 6.7 9.1 96 0.3 NNW 15 20 8 11 1005.1 1005.2 12.2
26/01:00am 9.7 6.3 9.1 96 0.3 NNW 17 22 9 12 1005.2 1005.3 12.0
26/12:30am 9.7 6.2 8.9 95 0.4 N 17 20 9 11 1005.3 1005.4 11.6
26/12:00am 9.7 5.3 8.9 95 0.4 N 22 30 12 16 1005.6 1005.7 11.4
 
Date/Time
EST
Temp
°C
App
Temp
°C
Dew
Point
Rel
Hum
%
Delta-T
°C
Wind Press
QNH
hPa
Press
MSL
hPa
Rain
since 9 am
mm
Dir
 
Spd
km/h
Gust
km/h
Spd
kts
Gust
kts
25/11:32pm 9.6 5.2 8.8 95 0.4 N 22 28 12 15 1005.5 1005.6 11.4
25/11:30pm 9.6 5.2 8.8 95 0.4 N 22 30 12 16 1005.6 1005.7 11.4
25/11:17pm 9.6 5.5 8.8 95 0.4 N 20 30 11 16 1005.6 1005.7 11.4
25/11:00pm 9.6 5.5 8.8 95 0.4 N 20 28 11 15 1005.8 1005.9 11.4
25/10:30pm 9.6 4.8 8.8 95 0.4 N 24 32 13 17 1006.1 1006.2 11.2
25/10:00pm 9.6 5.2 8.8 95 0.4 N 22 30 12 16 1006.2 1006.3 9.4
25/09:33pm 9.6 5.5 8.8 95 0.4 N 20 28 11 15 1006.6 1006.6 7.8
25/09:30pm 9.6 5.5 8.8 95 0.4 N 20 28 11 15 1006.4 1006.5 7.6
25/09:18pm 9.6 4.8 8.7 94 0.4 N 24 32 13 17 1006.6 1006.6 7.4
25/09:00pm 9.7 4.5 8.8 94 0.4 N 26 35 14 19 1006.6 1006.6 7.0
25/08:30pm 9.7 4.1 8.8 94 0.4 N 28 33 15 18 1006.8 1006.8 6.8
25/08:00pm 9.6 4.4 8.7 94 0.4 N 26 33 14 18 1006.8 1006.8 6.8
25/07:30pm 9.6 5.1 8.7 94 0.4 N 22 30 12 16 1007.0 1007.0 6.8
25/07:00pm 9.6 4.0 8.7 94 0.4 N 28 35 15 19 1007.1 1007.1 6.4
25/06:30pm 9.6 4.0 8.7 94 0.4 N 28 39 15 21 1007.1 1007.1 5.6
25/06:17pm 9.6 4.8 8.8 95 0.4 N 24 32 13 17 1007.2 1007.2 5.6
25/06:05pm 9.6 5.5 8.8 95 0.4 N 20 26 11 14 1007.1 1007.1 5.0
25/06:00pm 9.7 5.7 8.9 95 0.4 N 20 26 11 14 1007.1 1007.1 4.6
25/05:56pm 9.7 5.7 8.9 95 0.4 N 20 26 11 14 1007.3 1007.3 4.4
25/05:36pm 9.7 5.6 8.8 94 0.4 NNW 20 26 11 14 1007.1 1007.1 3.2
25/05:30pm 9.7 5.6 8.8 94 0.4 NNW 20 26 11 14 1007.1 1007.1 2.8
25/05:00pm 9.8 5.3 8.7 93 0.5 NNW 22 30 12 16 1007.0 1007.0 2.4
25/04:30pm 9.8 4.5 8.6 92 0.6 N 26 33 14 18 1007.1 1007.1 2.2
25/04:00pm 9.8 3.7 8.4 91 0.7 N 30 39 16 21 1006.9 1006.9 2.2
25/03:30pm 9.8 3.7 8.4 91 0.7 N 30 43 16 23 1007.1 1007.1 2.0
25/03:00pm 9.7 3.6 8.3 91 0.7 N 30 37 16 20 1007.9 1007.9 2.0
25/02:30pm 9.7 3.2 8.3 91 0.7 N 32 43 17 23 1007.9 1007.9 2.0
25/02:00pm 9.7 2.9 7.8 88 0.9 N 33 43 18 23 1008.3 1008.3 1.6
25/01:30pm 9.7 3.6 8.1 90 0.8 N 30 39 16 21 1008.6 1008.7 1.6
25/01:00pm 9.4 2.8 7.7 89 0.8 N 32 37 17 20 1009.1 1009.2 1.4
25/12:55pm 9.4 2.7 7.3 87 1.0 N 32 39 17 21 1009.2 1009.3 1.4
25/12:30pm 10.2 3.4 6.9 80 1.6 N 32 39 17 21 1009.5 1009.6 1.4
25/12:00pm 10.1 3.8 7.2 82 1.4 N 30 43 16 23 1010.1 1010.2 1.4
25/11:30am 9.1 3.1 7.2 88 0.9 N 28 35 15 19 1010.9 1010.9 1.4
25/11:00am 8.9 2.5 6.9 87 0.9 N 30 41 16 22 1011.5 1011.5 0.8
25/10:30am 10.3 2.7 5.9 74 2.1 N 35 44 19 24 1011.5 1011.5 0.2
25/10:00am 10.3 2.6 5.5 72 2.2 N 35 46 19 25 1011.5 1011.5 0.0
25/09:30am 11.4 4.1 5.3 66 2.8 N 33 43 18 23 1011.6 1011.6 0.0
25/09:00am 10.8 3.6 4.9 67 2.7 N 32 41 17 22 1011.8 1011.8 0.0
25/08:30am 10.6 4.2 5.2 69 2.5 N 28 37 15 20 1011.9 1012.0 0.0

Other Formats:

Comma delimited format used in spreadsheet applications
http://www.bom.gov.au/fwo/IDV60801/IDV60801.94829.axf

JavaScript Object Notation format (JSON) in row-major order
http://www.bom.gov.au/fwo/IDV60801/IDV60801.94829.json